Time;durP1;ratioP1;P1;durP2;ratioP2;P2;SDS_P1;SDS_P2;PMS_P1;PMS_P2;Temp;Humidity;BMP_temperature;BMP_pressure;BME280_temperature;BME280_humidity;BME280_pressure;Samples;Min_cycle;Max_cycle;Signal;HPM_P1;HPM_P2
2022/11/02 00:04:54;;;;;;;10.95;2.13;;;;;;;11.52;59.73;100491.81;10039011;29;20076;-77
2022/11/02 00:09:57;;;;;;;12.35;1.88;;;;;;;11.50;59.78;100483.88;10041028;29;20136;-77
2022/11/02 00:15:00;;;;;;;11.20;1.90;;;;;;;11.32;60.29;100486.25;10041241;29;20056;-77
2022/11/02 00:20:05;;;;;;;11.15;1.90;;;;;;;11.33;60.24;100485.28;10042074;29;20061;-77
2022/11/02 00:25:11;;;;;;;15.07;2.17;;;;;;;11.47;59.94;100470.69;10043646;29;21303;-77
2022/11/02 00:30:14;;;;;;;12.85;1.85;;;;;;;11.40;60.24;100461.41;10040300;29;20053;-77
2022/11/02 00:35:18;;;;;;;11.13;1.85;;;;;;;11.30;60.51;100453.28;10047340;29;20053;-77
2022/11/02 00:40:21;;;;;;;9.98;1.80;;;;;;;11.45;60.27;100451.97;10056512;29;20052;-77
2022/11/02 00:45:24;;;;;;;11.85;1.88;;;;;;;11.49;60.25;100449.88;10049575;29;20043;-77
2022/11/02 00:50:28;;;;;;;;;;;;;;;11.60;59.99;100449.84;10057865;29;21160;-77
2022/11/02 00:55:30;;;;;;;7.93;1.63;;;;;;;11.67;59.86;100447.50;10038483;29;20524;-77
2022/11/02 01:00:37;;;;;;;16.52;2.03;;;;;;;11.68;60.02;100449.19;10039194;29;20049;-77
2022/11/02 01:05:41;;;;;;;;;;;;;;;11.60;60.47;100428.34;10035668;29;20057;-77
2022/11/02 01:10:44;;;;;;;13.93;1.77;;;;;;;11.63;60.25;100436.13;10040812;29;19932;-77
2022/11/02 01:15:51;;;;;;;13.68;2.08;;;;;;;11.72;60.07;100416.50;10055512;29;20056;-77
2022/11/02 01:20:57;;;;;;;14.30;2.33;;;;;;;11.79;60.19;100414.13;10054214;29;20049;-77
2022/11/02 01:26:03;;;;;;;7.57;2.17;;;;;;;11.59;62.70;100410.47;10032054;29;20049;-77
2022/11/02 01:31:07;;;;;;;13.15;1.80;;;;;;;11.45;64.03;100416.16;10041962;29;20052;-77
2022/11/02 01:36:12;;;;;;;11.35;1.55;;;;;;;11.35;65.25;100416.06;10031637;29;20088;-77
2022/11/02 01:41:16;;;;;;;10.00;1.88;;;;;;;11.20;66.45;100410.16;10044199;29;20057;-76
2022/11/02 01:46:22;;;;;;;8.50;2.10;;;;;;;11.28;65.87;100415.75;10047674;29;20586;-77
2022/11/02 01:51:31;;;;;;;10.57;1.77;;;;;;;11.04;68.61;100407.00;10040395;29;20057;-76
2022/11/02 01:56:35;;;;;;;15.25;2.70;;;;;;;10.50;73.64;100418.56;10036896;29;20049;-76
2022/11/02 02:01:38;;;;;;;9.93;1.83;;;;;;;10.41;75.53;100411.25;10036660;29;20104;-76
2022/11/02 02:06:44;;;;;;;14.52;1.90;;;;;;;10.14;75.64;100412.47;10027440;29;21266;-76
2022/11/02 02:11:47;;;;;;;13.85;2.40;;;;;;;10.29;75.16;100399.69;10025724;29;20165;-76
2022/11/02 02:17:17;;;;;;;11.15;1.83;;;;;;;10.52;74.20;100400.50;10045779;29;20060;-77
2022/11/02 02:23:10;;;;;;;10.43;1.98;;;;;;;10.74;73.85;100400.47;10036967;29;20065;-77
2022/11/02 02:28:19;;;;;;;;;;;;;;;10.73;72.64;100390.72;10042564;29;20053;-76
2022/11/02 02:33:29;;;;;;;10.65;1.20;;;;;;;10.64;72.06;100393.28;10043277;29;20432;-77
2022/11/02 02:38:36;;;;;;;13.23;2.97;;;;;;;10.62;72.87;100398.78;10045889;29;20072;-77
2022/11/02 02:43:43;;;;;;;6.43;0.90;;;;;;;10.69;72.39;100375.81;10058156;29;21191;-76
2022/11/02 02:48:47;;;;;;;11.15;1.98;;;;;;;10.50;72.63;100384.50;10041766;29;20221;-77
2022/11/02 02:53:57;;;;;;;11.93;1.60;;;;;;;10.80;72.53;100389.22;10044509;29;20061;-77
2022/11/02 02:59:06;;;;;;;11.05;1.90;;;;;;;10.79;71.92;100392.88;10036705;29;20053;-77
2022/11/02 03:04:11;;;;;;;10.95;1.85;;;;;;;10.86;71.22;100379.81;10038251;29;20048;-77
2022/11/02 03:09:22;;;;;;;6.55;1.75;;;;;;;10.75;71.57;100375.31;10038101;29;20057;-77
2022/11/02 03:14:38;;;;;;;11.52;1.90;;;;;;;10.84;70.64;100379.94;10057232;29;20061;-77
2022/11/02 03:19:49;;;;;;;15.50;2.03;;;;;;;10.90;69.90;100378.56;10059016;29;20423;-77
2022/11/02 03:24:59;;;;;;;13.30;1.90;;;;;;;10.67;70.29;100380.47;10040199;29;20061;-78
2022/11/02 03:30:10;;;;;;;7.45;1.55;;;;;;;10.63;69.81;100380.84;10056812;29;20049;-78
2022/11/02 03:35:19;;;;;;;15.52;2.35;;;;;;;10.88;68.62;100374.31;10082397;29;20051;-78
2022/11/02 03:40:28;;;;;;;7.88;1.50;;;;;;;10.99;68.30;100375.13;10056729;29;20151;-78
2022/11/02 03:45:38;;;;;;;8.68;1.55;;;;;;;10.88;68.10;100393.13;10054882;29;20548;-78
2022/11/02 03:50:45;;;;;;;10.88;2.88;;;;;;;11.01;67.73;100386.59;10051261;29;21295;-78
2022/11/02 03:55:53;;;;;;;7.60;1.60;;;;;;;11.01;67.53;100391.97;10045124;29;20145;-77
2022/11/02 04:01:02;;;;;;;15.07;1.70;;;;;;;10.72;68.36;100397.03;10049028;29;20140;-77
2022/11/02 04:06:05;;;;;;;6.15;2.00;;;;;;;10.88;67.73;100403.88;10042565;29;20128;-77
2022/11/02 04:16:38;;;;;;;11.20;2.15;;;;;;;10.87;67.71;100419.13;10044075;29;20123;-78
2022/11/02 04:27:03;;;;;;;9.75;1.70;;;;;;;10.88;67.11;100426.22;10039582;29;20424;-78
2022/11/02 04:32:07;;;;;;;9.40;2.08;;;;;;;10.91;67.16;100436.69;10062290;29;20133;-77
2022/11/02 04:42:27;;;;;;;8.07;1.63;;;;;;;10.92;66.95;100443.81;10054217;29;20049;-77
2022/11/02 04:47:34;;;;;;;9.35;2.42;;;;;;;10.98;67.02;100442.44;10066711;29;20060;-78
2022/11/02 04:52:37;;;;;;;8.85;1.70;;;;;;;11.10;67.15;100437.91;10062263;29;20064;-77
2022/11/02 04:57:45;;;;;;;8.30;2.30;;;;;;;10.87;68.17;100437.09;10043308;29;20053;-77
2022/11/02 05:02:50;;;;;;;11.23;1.85;;;;;;;11.24;66.79;100445.69;10040330;29;20058;-78
2022/11/02 05:07:55;;;;;;;8.02;2.55;;;;;;;10.79;67.70;100452.00;10057532;29;20045;-78
2022/11/02 05:12:59;;;;;;;5.38;1.90;;;;;;;10.91;67.29;100442.06;10062316;29;20057;-77
2022/11/02 05:18:08;;;;;;;6.53;1.40;;;;;;;10.69;67.56;100437.59;10041801;29;20061;-78
2022/11/02 05:23:17;;;;;;;9.55;1.63;;;;;;;10.71;67.54;100441.03;10040003;29;20081;-78
2022/11/02 05:28:20;;;;;;;5.53;1.60;;;;;;;11.08;66.37;100439.84;10047662;29;20076;-77
2022/11/02 05:33:24;;;;;;;9.70;2.10;;;;;;;10.94;66.70;100443.66;10057574;29;20144;-77
2022/11/02 05:38:34;;;;;;;8.05;2.20;;;;;;;10.74;67.26;100443.47;10063504;29;20389;-77
2022/11/02 05:43:37;;;;;;;13.63;1.48;;;;;;;10.73;66.94;100444.44;10062486;29;20511;-77
2022/11/02 05:48:44;;;;;;;14.05;2.20;;;;;;;11.14;65.78;100450.16;10050999;29;20176;-77
2022/11/02 05:53:47;;;;;;;5.70;1.52;;;;;;;10.95;66.14;100462.38;10044140;29;20507;-77
2022/11/02 05:58:50;;;;;;;9.55;1.33;;;;;;;11.03;66.25;100454.53;10047717;29;20057;-77
2022/11/02 06:03:55;;;;;;;8.93;2.22;;;;;;;10.99;66.24;100474.56;10044190;29;20106;-77
2022/11/02 06:08:57;;;;;;;11.07;2.25;;;;;;;11.14;65.85;100458.22;10053430;29;20084;-77
2022/11/02 06:14:08;;;;;;;10.32;2.08;;;;;;;11.17;65.62;100472.25;10037783;29;20072;-77
2022/11/02 06:19:12;;;;;;;;;;;;;;;10.90;66.56;100469.09;10052926;29;21254;-78
2022/11/02 06:24:16;;;;;;;10.25;2.05;;;;;;;10.88;66.63;100484.47;10042055;29;20015;-77
2022/11/02 06:29:19;;;;;;;10.95;1.83;;;;;;;10.78;67.22;100487.91;10048680;29;20049;-78
2022/11/02 06:34:23;;;;;;;;;;;;;;;10.55;67.29;100500.47;10069724;29;20060;-77
2022/11/02 06:39:25;;;;;;;7.50;1.77;;;;;;;10.67;67.33;100505.84;10064207;29;19934;-77
2022/11/02 06:44:28;;;;;;;10.10;2.08;;;;;;;10.68;67.46;100521.00;10061258;29;20120;-78
2022/11/02 06:49:32;;;;;;;;;;;;;;;10.60;67.30;100537.72;10055165;29;20055;-78
2022/11/02 06:54:35;;;;;;;6.88;1.73;;;;;;;10.91;66.09;100528.09;10073583;29;19934;-78
2022/11/02 06:59:38;;;;;;;8.68;2.03;;;;;;;11.02;66.10;100540.66;10073859;29;20049;-78
2022/11/02 07:04:42;;;;;;;10.27;2.70;;;;;;;11.14;65.38;100546.94;10054030;29;20135;-77
2022/11/02 07:09:45;;;;;;;7.35;2.20;;;;;;;11.33;64.63;100554.38;10035800;29;20140;-77
2022/11/02 07:14:47;;;;;;;;;;;;;;;11.23;64.58;100573.91;10059238;29;20493;-77
2022/11/02 07:19:51;;;;;;;7.60;1.60;;;;;;;11.06;65.00;100580.63;10076169;29;19928;-77
2022/11/02 07:24:54;;;;;;;8.25;2.05;;;;;;;11.19;64.51;100575.16;10045487;29;20443;-77
2022/11/02 07:29:58;;;;;;;9.82;2.17;;;;;;;11.05;63.89;100596.84;10045177;29;20063;-77
2022/11/02 07:35:02;;;;;;;6.28;1.48;;;;;;;11.26;63.64;100586.25;10032228;29;20060;-78
2022/11/02 07:40:07;;;;;;;7.10;1.70;;;;;;;10.87;64.50;100601.88;10043559;29;20057;-78
2022/11/02 07:45:11;;;;;;;11.13;1.92;;;;;;;11.15;63.96;100605.09;10049322;29;20515;-77
2022/11/02 07:50:18;;;;;;;11.20;1.40;;;;;;;11.03;63.58;100612.28;10068917;29;20057;-78
2022/11/02 07:55:23;;;;;;;12.35;1.83;;;;;;;11.59;62.77;100612.25;10059229;29;20426;-78
2022/11/02 08:00:28;;;;;;;12.07;1.67;;;;;;;11.04;63.59;100627.41;10047884;29;20151;-77
2022/11/02 08:05:35;;;;;;;6.82;1.50;;;;;;;11.39;63.07;100635.41;10047032;29;20056;-78
2022/11/02 08:10:37;;;;;;;10.70;1.85;;;;;;;11.30;63.44;100633.47;10039568;29;20064;-77
2022/11/02 08:15:42;;;;;;;6.90;2.17;;;;;;;11.36;62.49;100624.88;10051080;29;20060;-77
2022/11/02 08:20:47;;;;;;;8.15;1.50;;;;;;;11.38;61.56;100640.88;10051073;29;20073;-77
2022/11/02 08:25:51;;;;;;;7.65;2.20;;;;;;;11.33;61.27;100641.28;10058957;29;20049;-78
2022/11/02 08:30:54;;;;;;;7.85;1.60;;;;;;;10.98;61.82;100658.34;10055418;29;20045;-77
2022/11/02 08:36:03;;;;;;;4.90;1.48;;;;;;;11.26;61.68;100669.63;10056807;29;20052;-78
2022/11/02 08:41:06;;;;;;;9.73;2.13;;;;;;;11.09;61.54;100684.38;10054401;29;20128;-78
2022/11/02 08:46:09;;;;;;;;;;;;;;;11.41;60.94;100679.19;10059070;29;20056;-78
2022/11/02 08:51:18;;;;;;;6.38;1.00;;;;;;;11.24;60.60;100661.69;10054879;29;20080;-77
2022/11/02 08:56:21;;;;;;;7.93;1.85;;;;;;;11.26;60.61;100696.50;10052740;29;20052;-78
2022/11/02 09:01:24;;;;;;;7.50;2.25;;;;;;;11.55;59.33;100688.81;10056682;29;20128;-77
2022/11/02 09:06:29;;;;;;;4.18;0.90;;;;;;;11.31;59.92;100693.47;10053130;29;20057;-77
2022/11/02 09:11:31;;;;;;;9.65;1.60;;;;;;;11.40;59.52;100690.88;10040565;29;20423;-77
2022/11/02 09:16:34;;;;;;;;;;;;;;;11.56;58.54;100712.06;10050560;29;20060;-78
2022/11/02 09:21:44;;;;;;;5.70;1.40;;;;;;;11.86;58.51;100703.34;10042092;29;19928;-77
2022/11/02 09:26:48;;;;;;;10.00;1.63;;;;;;;11.73;58.31;100722.31;10043638;29;20185;-77
2022/11/02 09:31:51;;;;;;;5.93;2.67;;;;;;;11.42;58.67;100715.00;10042057;29;20055;-77
2022/11/02 09:36:55;;;;;;;7.07;2.00;;;;;;;11.79;57.53;100715.56;10042451;29;20072;-75
2022/11/02 09:42:07;;;;;;;6.45;1.25;;;;;;;11.96;57.31;100743.84;10038937;29;20065;-77
2022/11/02 09:47:11;;;;;;;7.30;2.20;;;;;;;11.22;57.52;100754.22;10050671;29;20060;-77
2022/11/02 09:52:38;;;;;;;9.38;1.70;;;;;;;11.38;57.17;100745.78;10049002;29;20065;-77
2022/11/02 09:57:45;;;;;;;6.20;1.35;;;;;;;11.35;56.71;100746.88;10038580;29;20060;-77
2022/11/02 10:02:57;;;;;;;9.65;1.55;;;;;;;12.57;55.14;100765.75;10046114;29;20442;-77
2022/11/02 10:08:19;;;;;;;6.03;1.60;;;;;;;12.28;55.62;100765.44;10043188;29;20057;-76
2022/11/02 10:13:33;;;;;;;5.70;1.70;;;;;;;11.53;57.02;100805.63;10044292;29;20061;-77
2022/11/02 10:18:39;;;;;;;9.18;1.70;;;;;;;11.73;56.94;100783.34;10062919;29;20922;-75
2022/11/02 10:23:51;;;;;;;8.32;1.73;;;;;;;11.72;56.16;100787.03;10052419;29;20494;-77
2022/11/02 10:28:59;;;;;;;7.47;1.35;;;;;;;11.99;55.61;100797.44;10047863;29;20064;-76
2022/11/02 10:34:19;;;;;;;5.47;1.08;;;;;;;11.87;55.72;100796.56;10024449;29;20061;-77
2022/11/02 10:39:32;;;;;;;6.68;1.38;;;;;;;11.50;56.99;100815.63;10043158;29;20052;-78
2022/11/02 10:45:03;;;;;;;5.68;1.35;;;;;;;11.62;57.47;100804.88;10043000;29;20144;-78
2022/11/02 10:50:26;;;;;;;6.25;1.48;;;;;;;11.73;57.26;100840.72;10050407;29;20072;-77
2022/11/02 10:55:41;;;;;;;6.80;1.73;;;;;;;11.63;57.39;100803.91;10049713;29;20056;-77
2022/11/02 11:00:44;;;;;;;5.35;1.58;;;;;;;11.87;55.27;100812.72;10038077;29;20057;-78
2022/11/02 11:05:59;;;;;;;6.65;1.40;;;;;;;13.26;52.78;100821.06;10043013;29;20061;-76
2022/11/02 11:11:15;;;;;;;9.52;1.60;;;;;;;14.09;51.67;100817.41;10047287;29;20045;-77
2022/11/02 11:16:19;;;;;;;8.85;1.27;;;;;;;14.81;48.74;100837.13;10036123;29;20066;-77
2022/11/02 11:21:36;;;;;;;2.55;0.80;;;;;;;13.99;50.30;100831.84;10046521;29;20061;-77
2022/11/02 11:26:41;;;;;;;13.48;1.60;;;;;;;14.41;49.19;100861.50;10063347;29;20074;-77
2022/11/02 11:31:43;;;;;;;7.15;2.17;;;;;;;14.27;49.95;100857.31;10042016;29;20063;-77
2022/11/02 11:36:46;;;;;;;7.80;1.02;;;;;;;12.65;52.88;100866.66;10049167;29;20054;-77
2022/11/02 11:41:50;;;;;;;7.57;1.80;;;;;;;12.57;53.34;100860.06;10033232;29;20060;-77
2022/11/02 11:46:56;;;;;;;7.35;1.00;;;;;;;12.50;54.00;100852.59;10052638;29;20656;-77
2022/11/02 11:52:01;;;;;;;9.55;1.65;;;;;;;13.66;51.12;100855.47;10062068;29;20688;-77
2022/11/02 11:57:26;;;;;;;7.10;1.27;;;;;;;12.91;52.38;100859.09;10059104;29;21124;-77
2022/11/02 12:02:32;;;;;;;9.35;1.50;;;;;;;12.72;52.77;100865.16;10046436;29;20049;-77
2022/11/02 12:07:56;;;;;;;10.73;1.40;;;;;;;12.90;51.81;100852.00;10040614;29;20049;-77
2022/11/02 12:13:14;;;;;;;6.63;1.33;;;;;;;12.77;51.21;100841.38;10043923;29;20060;-77
2022/11/02 12:18:32;;;;;;;7.05;1.50;;;;;;;13.51;50.45;100848.66;10037231;29;20553;-77
2022/11/02 12:23:49;;;;;;;9.27;1.33;;;;;;;14.01;49.13;100830.72;10046961;29;20143;-77
2022/11/02 12:29:07;;;;;;;9.18;1.70;;;;;;;15.25;47.29;100832.97;10043345;29;20065;-77
2022/11/02 12:34:27;;;;;;;7.63;1.60;;;;;;;15.62;45.83;100834.94;10037775;29;20057;-77
2022/11/02 12:39:42;;;;;;;7.43;1.20;;;;;;;15.76;43.94;100838.16;10049622;29;20053;-77
2022/11/02 12:44:58;;;;;;;5.40;1.73;;;;;;;16.40;43.67;100842.78;10049775;29;20053;-77
2022/11/02 12:50:10;;;;;;;4.55;0.95;;;;;;;14.89;45.22;100858.91;10046534;29;20061;-77
2022/11/02 12:55:17;;;;;;;4.63;1.42;;;;;;;14.49;45.80;100857.09;10041152;29;20190;-77
2022/11/02 13:00:22;;;;;;;7.03;1.20;;;;;;;15.14;44.42;100852.06;10048719;29;20200;-77
2022/11/02 13:05:29;;;;;;;5.80;1.02;;;;;;;14.59;44.75;100882.31;10051040;29;20508;-77
2022/11/02 13:10:38;;;;;;;4.35;1.40;;;;;;;14.37;45.83;100864.44;10032007;29;20053;-78
2022/11/02 13:15:46;;;;;;;3.75;1.00;;;;;;;14.74;43.96;100847.63;10043961;29;20053;-77
2022/11/02 13:20:52;;;;;;;6.43;1.73;;;;;;;15.02;44.21;100853.19;10053342;29;20057;-78
2022/11/02 13:25:59;;;;;;;7.72;1.13;;;;;;;15.27;43.14;100849.91;10050181;29;20057;-77
2022/11/02 13:31:04;;;;;;;7.05;1.35;;;;;;;14.66;44.81;100860.97;10055418;29;20780;-76
2022/11/02 13:36:15;;;;;;;14.68;1.42;;;;;;;14.35;44.55;100852.06;10043525;29;20184;-78
2022/11/02 13:41:39;;;;;;;4.03;1.20;;;;;;;14.06;43.60;100857.34;10038655;29;20501;-78
2022/11/02 13:47:03;;;;;;;5.35;0.82;;;;;;;14.28;44.89;100859.00;10045523;29;20500;-78
2022/11/02 13:52:11;;;;;;;3.25;1.10;;;;;;;14.12;46.22;100879.28;10044280;29;20424;-77
2022/11/02 13:57:33;;;;;;;4.85;1.15;;;;;;;14.62;45.43;100885.72;10034862;29;20423;-77
2022/11/02 14:02:42;;;;;;;4.88;0.73;;;;;;;13.98;44.92;100887.72;10026345;29;20388;-77
2022/11/02 14:07:45;;;;;;;7.65;0.93;;;;;;;14.13;44.53;100891.81;10056433;29;20060;-78
2022/11/02 14:12:49;;;;;;;4.57;0.93;;;;;;;13.97;44.34;100871.69;10037697;29;20061;-77
2022/11/02 14:18:29;;;;;;;3.85;1.45;;;;;;;14.00;44.77;100883.06;10059597;29;20060;-77
2022/11/02 14:23:38;;;;;;;6.53;1.40;;;;;;;13.87;45.42;100874.31;10034008;29;20185;-76
2022/11/02 14:28:43;;;;;;;3.47;1.17;;;;;;;14.03;45.75;100860.31;10101846;23;20446;-77
2022/11/02 14:34:02;;;;;;;4.05;1.60;;;;;;;13.98;45.29;100870.69;10162362;29;20044;-77
2022/11/02 14:39:14;;;;;;;4.45;0.95;;;;;;;13.90;45.38;100866.81;10154404;29;20067;-78
2022/11/02 14:44:44;;;;;;;7.40;1.60;;;;;;;14.32;45.45;100868.56;10153366;29;20127;-78
2022/11/02 14:49:54;;;;;;;6.32;1.75;;;;;;;14.08;45.11;100860.78;10160073;29;20140;-77
2022/11/02 14:55:01;;;;;;;8.70;1.52;;;;;;;13.49;45.37;100875.78;10151277;29;20096;-77
2022/11/02 15:00:17;;;;;;;7.72;1.33;;;;;;;13.69;45.43;100876.78;10147788;29;20072;-78
2022/11/02 15:05:31;;;;;;;6.40;1.40;;;;;;;13.84;45.30;100863.78;10158940;29;20070;-78
2022/11/02 15:10:42;;;;;;;9.48;1.42;;;;;;;13.48;45.75;100868.69;10154215;29;20469;-79
2022/11/02 15:15:46;;;;;;;10.18;1.88;;;;;;;13.08;46.43;100860.38;10136595;29;20153;-79
2022/11/02 15:21:27;;;;;;;9.50;1.45;;;;;;;13.12;46.87;100875.34;10128994;29;20167;-79
2022/11/02 15:26:40;;;;;;;11.23;2.28;;;;;;;13.10;47.48;100869.22;10134988;29;20505;-79
2022/11/02 15:31:51;;;;;;;8.55;1.88;;;;;;;13.08;47.18;100872.00;10144674;29;20055;-79
2022/11/02 15:36:56;;;;;;;5.80;1.70;;;;;;;12.75;47.92;100881.06;10150713;29;20151;-77
2022/11/02 15:42:12;;;;;;;5.43;1.48;;;;;;;12.60;48.68;100872.44;10141865;29;20430;-79
2022/11/02 15:47:29;;;;;;;9.48;2.17;;;;;;;12.38;48.98;100874.16;10142813;29;20072;-78
2022/11/02 15:52:48;;;;;;;10.57;1.70;;;;;;;12.39;49.34;100877.72;10146256;29;20044;-78
2022/11/02 15:58:24;;;;;;;7.78;1.67;;;;;;;12.33;49.43;100870.13;10146553;29;20533;-79
2022/11/02 16:03:27;;;;;;;6.25;1.90;;;;;;;12.23;49.79;100853.84;10143559;29;20051;-78
2022/11/02 16:08:33;;;;;;;12.90;2.20;;;;;;;12.16;49.95;100858.84;10150038;29;20050;-78
2022/11/02 16:13:37;;;;;;;10.48;1.92;;;;;;;12.02;50.51;100856.41;10143834;29;20115;-78
2022/11/02 16:19:00;;;;;;;12.05;1.95;;;;;;;11.79;50.96;100865.44;10139694;29;20059;-77
2022/11/02 16:24:02;;;;;;;5.85;1.95;;;;;;;11.63;51.26;100855.91;10145143;29;20173;-77
2022/11/02 16:29:08;;;;;;;8.95;2.83;;;;;;;11.59;51.63;100867.00;10143806;29;20051;-77
2022/11/02 16:34:19;;;;;;;9.23;2.58;;;;;;;11.57;51.74;100871.63;10134518;29;20056;-76
2022/11/02 16:39:26;;;;;;;7.70;2.00;;;;;;;11.39;52.30;100858.66;10127851;29;20156;-75
2022/11/02 16:44:32;;;;;;;7.30;1.60;;;;;;;11.38;52.40;100865.00;10128415;29;20056;-79
2022/11/02 16:50:00;;;;;;;7.10;1.58;;;;;;;11.32;52.63;100867.31;10107804;29;20132;-78
2022/11/02 16:55:29;;;;;;;11.23;1.80;;;;;;;11.32;52.72;100873.53;10123126;29;20485;-76
2022/11/02 17:00:32;;;;;;;6.78;1.95;;;;;;;11.25;52.69;100873.16;10110701;29;20056;-78
2022/11/02 17:05:41;;;;;;;7.35;1.58;;;;;;;11.31;52.81;100879.91;10120387;29;20562;-78
2022/11/02 17:10:44;;;;;;;8.60;1.70;;;;;;;11.26;52.92;100874.00;10126423;29;20049;-77
2022/11/02 17:15:48;;;;;;;8.05;1.92;;;;;;;11.24;52.85;100881.31;10113207;29;20056;-78
2022/11/02 17:21:25;;;;;;;11.43;2.42;;;;;;;11.19;53.10;100876.31;10105439;29;20570;-77
2022/11/02 17:26:34;;;;;;;7.88;2.22;;;;;;;11.07;53.52;100869.13;10120759;29;20044;-78
2022/11/02 17:31:39;;;;;;;12.30;2.30;;;;;;;10.97;53.91;100870.78;10103425;29;20059;-77
2022/11/02 17:36:46;;;;;;;6.40;2.30;;;;;;;10.90;54.23;100874.94;10107613;29;21597;-78
2022/11/02 17:47:17;;;;;;;12.82;2.83;;;;;;;10.80;54.78;100882.81;10131266;29;20047;-77
2022/11/02 17:52:22;;;;;;;13.50;2.50;;;;;;;10.82;54.95;100875.50;10133182;29;20094;-77
2022/11/02 17:57:25;;;;;;;12.88;3.10;;;;;;;10.74;55.39;100867.13;10098253;29;20543;-76
2022/11/02 18:02:28;;;;;;;13.45;2.80;;;;;;;10.74;55.29;100869.81;10102527;29;20523;-75
2022/11/02 18:07:32;;;;;;;12.45;3.15;;;;;;;10.60;55.87;100855.59;10124873;29;20099;-78
2022/11/02 18:12:35;;;;;;;10.48;2.40;;;;;;;10.49;56.39;100857.34;10136253;29;20508;-77
2022/11/02 18:17:38;;;;;;;;;;;;;;;10.43;56.75;100858.66;10134906;29;20044;-77
2022/11/02 18:22:42;;;;;;;12.70;2.72;;;;;;;10.46;56.71;100862.94;10127450;29;19927;-76
2022/11/02 18:27:46;;;;;;;8.93;2.45;;;;;;;10.46;56.67;100845.00;10135423;29;20062;-76
2022/11/02 18:32:49;;;;;;;9.70;2.20;;;;;;;10.37;56.99;100849.22;10133999;29;20044;-76
2022/11/02 18:37:53;;;;;;;;;;;;;;;10.38;57.01;100856.28;10129973;29;20406;-77
2022/11/02 18:42:56;;;;;;;12.20;2.83;;;;;;;10.34;57.15;100848.59;10138595;29;21275;-76
2022/11/02 18:47:58;;;;;;;;;;;;;;;10.24;57.27;100845.72;10144465;29;20059;-78
2022/11/02 18:53:03;;;;;;;8.88;3.17;;;;;;;10.12;57.34;100833.16;10131622;29;19998;-79
2022/11/02 18:58:05;;;;;;;12.25;3.67;;;;;;;10.09;57.17;100841.44;10134647;29;21081;-79
2022/11/02 19:03:10;;;;;;;10.77;3.38;;;;;;;10.05;57.04;100832.75;10137759;29;20056;-78
2022/11/02 19:13:46;;;;;;;13.90;3.22;;;;;;;10.01;57.11;100819.66;10080162;29;20163;-77
2022/11/02 19:18:49;;;;;;;10.68;2.47;;;;;;;9.96;57.46;100822.69;10134579;29;20055;-77
2022/11/02 19:23:53;;;;;;;10.43;2.65;;;;;;;9.85;58.03;100809.16;10111306;29;20184;-76
2022/11/02 19:28:56;;;;;;;12.18;2.85;;;;;;;9.84;58.07;100796.69;10126107;29;20155;-79
2022/11/02 19:34:06;;;;;;;9.60;1.88;;;;;;;9.88;58.38;100803.59;10116232;29;20145;-78
2022/11/02 19:39:10;;;;;;;11.80;1.92;;;;;;;10.02;58.42;100794.53;10106692;29;20075;-78
2022/11/02 19:44:13;;;;;;;14.95;2.42;;;;;;;10.16;58.21;100787.19;10122177;29;20056;-79
2022/11/02 19:49:16;;;;;;;6.32;2.10;;;;;;;10.08;58.36;100783.34;10123110;29;20067;-79
2022/11/02 19:54:21;;;;;;;8.98;1.95;;;;;;;10.08;58.13;100781.53;10134234;29;21270;-77
2022/11/02 19:59:23;;;;;;;12.38;2.00;;;;;;;9.88;58.84;100771.38;10128695;29;20040;-76
2022/11/02 20:04:26;;;;;;;;;;;;;;;9.85;59.00;100782.31;10127003;29;20648;-79
2022/11/02 20:09:30;;;;;;;9.18;2.03;;;;;;;9.99;58.59;100778.66;10131762;29;19933;-80
2022/11/02 20:14:35;;;;;;;3.80;1.75;;;;;;;9.93;58.92;100771.91;10140386;29;20120;-81
2022/11/02 20:19:38;;;;;;;7.60;2.00;;;;;;;9.82;59.02;100787.88;10148295;29;20143;-80
2022/11/02 20:24:41;;;;;;;;;;;;;;;9.78;59.11;100781.88;10179031;29;20059;-78
2022/11/02 20:29:45;;;;;;;8.77;2.08;;;;;;;9.85;59.17;100782.31;10159573;29;19927;-79
2022/11/02 20:34:47;;;;;;;7.70;1.80;;;;;;;9.71;59.39;100781.47;10141918;29;20555;-81
2022/11/02 20:39:51;;;;;;;;;;;;;;;9.52;59.91;100773.00;10138917;29;20055;-82
2022/11/02 20:44:54;;;;;;;14.18;1.65;;;;;;;9.64;59.63;100772.13;10142812;29;19962;-80
2022/11/02 20:49:57;;;;;;;8.10;1.73;;;;;;;9.62;59.90;100762.47;10144450;29;20055;-80
2022/11/02 20:55:01;;;;;;;;;;;;;;;9.48;60.16;100736.63;10145074;29;20429;-81
2022/11/02 21:00:05;;;;;;;6.25;1.83;;;;;;;9.58;60.11;100743.06;10140803;29;20066;-81
2022/11/02 21:05:09;;;;;;;7.82;1.73;;;;;;;9.64;59.89;100744.47;10138117;29;20067;-80
2022/11/02 21:10:13;;;;;;;8.57;1.90;;;;;;;9.51;60.09;100739.94;10137937;29;20052;-79
2022/11/02 21:15:16;;;;;;;8.40;1.95;;;;;;;9.49;60.24;100733.84;10137093;29;20561;-80
2022/11/02 21:20:19;;;;;;;7.60;3.13;;;;;;;9.60;60.12;100729.53;10123939;29;20717;-81
2022/11/02 21:25:37;;;;;;;9.20;2.00;;;;;;;9.62;59.98;100719.56;10142813;29;20057;-79
2022/11/02 21:30:39;;;;;;;15.70;3.40;;;;;;;9.63;59.88;100698.00;10132359;29;20054;-81
2022/11/02 21:35:42;;;;;;;6.45;1.73;;;;;;;9.56;60.18;100707.44;10134958;29;20049;-79
2022/11/02 21:40:46;;;;;;;14.88;2.40;;;;;;;9.66;59.89;100708.50;10124568;29;20057;-78
2022/11/02 21:45:51;;;;;;;8.27;1.60;;;;;;;9.75;59.46;100708.81;10156567;29;20060;-78
2022/11/02 21:51:05;;;;;;;4.85;1.73;;;;;;;9.72;59.37;100705.38;10114627;29;20064;-80
2022/11/02 21:56:13;;;;;;;7.15;1.75;;;;;;;9.77;59.39;100697.00;10134961;29;20052;-80
2022/11/02 22:06:39;;;;;;;6.70;1.88;;;;;;;9.77;59.52;100691.63;10127406;29;20087;-80
2022/11/02 22:11:43;;;;;;;9.10;1.65;;;;;;;9.72;59.60;100691.13;10129089;29;20048;-77
2022/11/02 22:16:46;;;;;;;9.48;1.63;;;;;;;9.88;59.18;100688.19;10127436;29;20671;-79
2022/11/02 22:21:49;;;;;;;;;;;;;;;9.96;58.74;100683.13;10122671;29;20056;-78
2022/11/02 22:26:54;;;;;;;12.13;1.63;;;;;;;9.96;58.94;100671.53;10119577;29;20015;-79
2022/11/02 22:31:56;;;;;;;8.07;2.40;;;;;;;10.01;58.57;100666.66;10105071;29;20123;-79
2022/11/02 22:38:47;;;;;;;;;;;;;;;9.98;58.74;100662.38;10116359;29;21210;-79
2022/11/02 22:42:23;;;;;;;13.03;1.87;;;;;;;9.95;58.69;100646.50;10120922;29;20492;-77
2022/11/02 22:47:26;;;;;;;9.43;1.63;;;;;;;9.91;58.70;100642.34;10115762;29;20044;-77
2022/11/02 22:52:29;;;;;;;7.47;1.92;;;;;;;9.93;58.44;100646.66;10119636;29;20486;-79
2022/11/02 22:57:33;;;;;;;7.38;1.67;;;;;;;9.88;58.35;100651.50;10111247;29;20059;-79
2022/11/02 23:02:36;;;;;;;14.38;1.65;;;;;;;9.94;57.88;100634.06;10100436;29;20054;-78
2022/11/02 23:07:39;;;;;;;10.38;1.60;;;;;;;10.05;57.69;100617.19;10110826;29;20084;-78
2022/11/02 23:12:43;;;;;;;10.38;2.03;;;;;;;10.02;57.58;100615.56;10165147;29;20482;-78
2022/11/02 23:17:48;;;;;;;11.02;2.35;;;;;;;9.84;57.78;100620.44;10159270;29;20093;-78
2022/11/02 23:33:35;;;;;;;6.18;1.95;;;;;;;9.93;57.72;100609.06;10150015;29;20049;-79
2022/11/02 23:44:11;;;;;;;5.20;1.52;;;;;;;9.85;57.83;100595.34;10163385;29;20521;-79
2022/11/02 23:49:16;;;;;;;5.10;1.35;;;;;;;9.89;57.84;100587.94;10163963;29;20119;-79
2022/11/02 23:59:41;;;;;;;6.32;1.35;;;;;;;9.94;57.99;100575.88;10162507;29;20076;-79
